Time,TemperatureF,DewpointF,PressureIn,WindDirection,WindDirectionDegrees,WindSpeedMPH,WindSpeedGustMPH,Humidity,HourlyPrecipIn,Conditions,Clouds,dailyrainin,SoftwareType,DateUTC
2013-06-09 00:04:00,51.5,39.3,29.89,SW,223,5.0,5.0,63,0.00,CLR,,0.00,WeatherDisplay:10.37,2013-06-09 07:04:00,
2013-06-09 00:09:00,51.7,39.1,29.89,SW,221,5.0,5.0,62,0.00,CLR,,0.00,WeatherDisplay:10.37,2013-06-09 07:09:00,
2013-06-09 00:14:00,51.2,39.4,29.90,West,262,6.9,6.9,64,0.00,CLR,,0.00,WeatherDisplay:10.37,2013-06-09 07:14:00,
2013-06-09 00:19:00,51.2,39.4,29.89,WSW,248,4.6,4.6,64,0.00,CLR,,0.00,WeatherDisplay:10.37,2013-06-09 07:19:00,
2013-06-09 00:24:00,51.2,39.8,29.89,WSW,244,3.5,3.5,65,0.00,CLR,,0.00,WeatherDisplay:10.37,2013-06-09 07:24:00,
2013-06-09 00:29:00,51.4,39.6,29.89,WSW,244,3.5,3.5,64,0.00,CLR,,0.00,WeatherDisplay:10.37,2013-06-09 07:29:00,
2013-06-09 00:34:00,51.4,39.6,29.89,WSW,244,4.0,4.0,64,0.00,CLR,,0.00,WeatherDisplay:10.37,2013-06-09 07:34:00,
2013-06-09 00:39:00,51.6,39.8,29.88,WSW,244,5.0,5.0,64,0.00,CLR,,0.00,WeatherDisplay:10.37,2013-06-09 07:39:00,
2013-06-09 00:44:00,52.1,39.9,29.88,SW,217,3.5,3.5,63,0.00,CLR,,0.00,WeatherDisplay:10.37,2013-06-09 07:44:00,
2013-06-09 00:49:00,52.8,39.7,29.88,SSW,206,4.6,4.6,61,0.00,CLR,,0.00,WeatherDisplay:10.37,2013-06-09 07:49:00,
2013-06-09 00:54:00,52.7,39.6,29.88,SSW,206,4.0,4.0,61,0.00,CLR,,0.00,WeatherDisplay:10.37,2013-06-09 07:54:00,
2013-06-09 00:59:00,51.9,39.7,29.87,SSW,206,4.0,4.0,63,0.00,CLR,,0.00,WeatherDisplay:10.37,2013-06-09 07:59:00,
2013-06-09 01:04:00,51.3,39.5,29.88,SSW,206,4.0,4.0,64,0.00,CLR,,0.00,WeatherDisplay:10.37,2013-06-09 08:04:00,
2013-06-09 01:09:00,50.8,39.5,29.88,SSW,206,3.5,3.5,65,0.00,CLR,,0.00,WeatherDisplay:10.37,2013-06-09 08:09:00,
2013-06-09 01:14:00,51.1,39.3,29.88,SSW,207,3.5,3.5,64,0.00,CLR,,0.00,WeatherDisplay:10.37,2013-06-09 08:14:00,
2013-06-09 01:19:00,51.6,39.4,29.87,SSW,207,3.5,3.5,63,0.00,CLR,,0.00,WeatherDisplay:10.37,2013-06-09 08:19:00,
2013-06-09 01:24:00,51.9,39.3,29.87,SSW,207,3.5,3.5,62,0.00,CLR,,0.00,WeatherDisplay:10.37,2013-06-09 08:24:00,
2013-06-09 01:29:00,51.8,39.2,29.86,SSW,207,5.0,5.0,62,0.00,CLR,,0.00,WeatherDisplay:10.37,2013-06-09 08:29:00,
2013-06-09 01:34:00,51.3,39.1,29.87,SSW,210,5.0,5.0,63,0.00,CLR,,0.00,WeatherDisplay:10.37,2013-06-09 08:34:00,
2013-06-09 01:39:00,51.0,39.2,29.87,SW,216,4.0,4.0,64,0.00,CLR,,0.00,WeatherDisplay:10.37,2013-06-09 08:39:00,
2013-06-09 01:44:00,53.4,39.0,29.87,West,272,8.1,8.1,58,0.00,CLR,,0.00,WeatherDisplay:10.37,2013-06-09 08:44:00,
2013-06-09 01:49:00,54.4,39.0,29.86,WNW,296,3.5,3.5,56,0.00,CLR,,0.00,WeatherDisplay:10.37,2013-06-09 08:49:00,
2013-06-09 01:54:00,54.6,38.3,29.86,WNW,296,2.3,2.3,54,0.00,CLR,,0.00,WeatherDisplay:10.37,2013-06-09 08:54:00,
2013-06-09 01:59:00,54.6,38.3,29.85,WNW,295,1.1,1.1,54,0.00,CLR,,0.00,WeatherDisplay:10.37,2013-06-09 08:59:00,
2013-06-09 02:04:00,54.8,38.5,29.85,WNW,295,1.1,0.0,54,0.00,CLR,,0.00,WeatherDisplay:10.37,2013-06-09 09:04:00,
2013-06-09 02:10:00,54.9,38.6,29.85,WNW,296,1.0,0.0,54,0.00,CLR,,0.00,WeatherDisplay:10.37,2013-06-09 09:10:00,
2013-06-09 02:15:00,54.9,38.6,29.85,WNW,295,2.3,2.3,54,0.00,CLR,,0.00,WeatherDisplay:10.37,2013-06-09 09:15:00,
2013-06-09 02:20:00,55.2,38.8,29.85,WNW,296,0.0,0.0,54,0.00,CLR,,0.00,WeatherDisplay:10.37,2013-06-09 09:20:00,
2013-06-09 02:25:00,55.4,39.0,29.85,WNW,295,0.0,0.0,54,0.00,CLR,,0.00,WeatherDisplay:10.37,2013-06-09 09:25:00,
2013-06-09 02:30:00,55.4,39.0,29.85,WNW,295,0.0,0.0,54,0.00,CLR,,0.00,WeatherDisplay:10.37,2013-06-09 09:30:00,
2013-06-09 02:35:00,55.4,39.5,29.85,WNW,295,3.5,3.5,55,0.00,CLR,,0.00,WeatherDisplay:10.37,2013-06-09 09:35:00,
2013-06-09 02:40:00,55.5,39.1,29.85,WNW,295,3.5,3.5,54,0.00,CLR,,0.00,WeatherDisplay:10.37,2013-06-09 09:40:00,
2013-06-09 02:45:00,55.8,39.4,29.85,WNW,295,1.1,0.0,54,0.00,CLR,,0.00,WeatherDisplay:10.37,2013-06-09 09:45:00,
2013-06-09 02:50:00,55.8,39.4,29.85,WNW,296,2.3,2.3,54,0.00,CLR,,0.00,WeatherDisplay:10.37,2013-06-09 09:50:00,
2013-06-09 02:55:00,55.8,39.4,29.84,WNW,295,2.0,2.0,54,0.00,CLR,,0.00,WeatherDisplay:10.37,2013-06-09 09:55:00,
2013-06-09 03:00:00,55.6,39.2,29.84,WNW,296,3.5,3.5,54,0.00,CLR,,0.00,WeatherDisplay:10.37,2013-06-09 10:00:00,
2013-06-09 03:05:00,55.4,39.0,29.84,WNW,296,1.1,1.1,54,0.00,CLR,,0.00,WeatherDisplay:10.37,2013-06-09 10:05:00,
2013-06-09 03:10:00,55.3,39.4,29.84,WNW,296,3.5,3.5,55,0.00,CLR,,0.00,WeatherDisplay:10.37,2013-06-09 10:10:00,
2013-06-09 03:15:00,55.3,39.4,29.84,WNW,296,4.6,4.6,55,0.00,CLR,,0.00,WeatherDisplay:10.37,2013-06-09 10:15:00,
2013-06-09 03:20:00,55.1,39.7,29.84,WNW,295,2.3,0.0,56,0.00,CLR,,0.00,WeatherDisplay:10.37,2013-06-09 10:20:00,
2013-06-09 03:25:00,54.8,39.4,29.84,WNW,296,0.0,0.0,56,0.00,CLR,,0.00,WeatherDisplay:10.37,2013-06-09 10:25:00,
2013-06-09 03:30:00,53.0,39.0,29.84,WNW,296,0.0,0.0,59,0.00,CLR,,0.00,WeatherDisplay:10.37,2013-06-09 10:30:00,
2013-06-09 03:35:00,51.7,38.7,29.85,WNW,296,0.0,0.0,61,0.00,CLR,,0.00,WeatherDisplay:10.37,2013-06-09 10:35:00,
2013-06-09 03:40:00,51.0,38.8,29.85,WNW,296,0.0,0.0,63,0.00,CLR,,0.00,WeatherDisplay:10.37,2013-06-09 10:40:00,
2013-06-09 03:45:00,50.9,38.7,29.85,WNW,296,2.3,2.3,63,0.00,CLR,,0.00,WeatherDisplay:10.37,2013-06-09 10:45:00,
2013-06-09 03:50:00,51.3,38.7,29.85,WNW,296,1.1,1.1,62,0.00,CLR,,0.00,WeatherDisplay:10.37,2013-06-09 10:50:00,
2013-06-09 03:55:00,51.4,38.8,29.85,WNW,296,2.3,2.3,62,0.00,CLR,,0.00,WeatherDisplay:10.37,2013-06-09 10:55:00,
2013-06-09 04:00:00,51.0,38.8,29.86,WNW,295,1.1,0.0,63,0.00,CLR,,0.00,WeatherDisplay:10.37,2013-06-09 11:00:00,
2013-06-09 04:05:00,50.9,39.1,29.86,WNW,296,0.0,0.0,64,0.00,CLR,,0.00,WeatherDisplay:10.37,2013-06-09 11:05:00,
2013-06-09 04:10:00,50.8,39.1,29.86,WNW,295,1.1,1.1,64,0.00,CLR,,0.00,WeatherDisplay:10.37,2013-06-09 11:10:00,
2013-06-09 04:15:00,51.1,39.3,29.86,WNW,296,0.0,0.0,64,0.00,CLR,,0.00,WeatherDisplay:10.37,2013-06-09 11:15:00,
2013-06-09 04:20:00,51.6,39.4,29.86,WNW,296,0.0,0.0,63,0.00,CLR,,0.00,WeatherDisplay:10.37,2013-06-09 11:20:00,
2013-06-09 04:25:00,51.9,39.3,29.86,WNW,296,0.0,0.0,62,0.00,CLR,,0.00,WeatherDisplay:10.37,2013-06-09 11:25:00,
2013-06-09 04:30:00,52.0,39.4,29.86,WNW,296,3.5,3.5,62,0.00,CLR,,0.00,WeatherDisplay:10.37,2013-06-09 11:30:00,
2013-06-09 04:35:00,52.2,39.6,29.86,WNW,296,2.3,0.0,62,0.00,CLR,,0.00,WeatherDisplay:10.37,2013-06-09 11:35:00,
2013-06-09 04:40:00,51.9,39.7,29.86,WNW,296,0.0,0.0,63,0.00,CLR,,0.00,WeatherDisplay:10.37,2013-06-09 11:40:00,
2013-06-09 04:45:00,51.5,39.3,29.86,WNW,296,2.3,2.3,63,0.00,CLR,,0.00,WeatherDisplay:10.37,2013-06-09 11:45:00,
2013-06-09 04:50:00,50.8,39.1,29.86,WNW,295,0.0,0.0,64,0.00,CLR,,0.00,WeatherDisplay:10.37,2013-06-09 11:50:00,
2013-06-09 04:55:00,50.4,39.5,29.87,WNW,296,2.3,2.3,66,0.00,CLR,,0.00,WeatherDisplay:10.37,2013-06-09 11:55:00,
2013-06-09 05:00:00,50.6,39.7,29.86,WNW,296,2.3,2.3,66,0.00,CLR,,0.00,WeatherDisplay:10.37,2013-06-09 12:00:00,
2013-06-09 05:05:00,51.5,40.1,29.86,WNW,296,2.3,2.3,65,0.00,CLR,,0.00,WeatherDisplay:10.37,2013-06-09 12:05:00,
2013-06-09 05:10:00,52.2,40.4,29.86,WNW,295,2.3,0.0,64,0.00,CLR,,0.00,WeatherDisplay:10.37,2013-06-09 12:10:00,
2013-06-09 05:15:00,52.7,40.5,29.85,WNW,296,0.0,0.0,63,0.00,CLR,,0.00,WeatherDisplay:10.37,2013-06-09 12:15:00,
2013-06-09 05:20:00,53.0,40.3,29.85,WNW,296,0.0,0.0,62,0.00,CLR,,0.00,WeatherDisplay:10.37,2013-06-09 12:20:00,
2013-06-09 05:25:00,53.3,40.6,29.85,WNW,295,0.0,0.0,62,0.00,CLR,,0.00,WeatherDisplay:10.37,2013-06-09 12:25:00,
2013-06-09 05:30:00,53.5,40.8,29.85,WNW,295,2.0,2.0,62,0.00,CLR,,0.00,WeatherDisplay:10.37,2013-06-09 12:30:00,
2013-06-09 05:35:00,53.9,41.2,29.85,WNW,296,0.0,0.1,62,0.00,CLR,,0.00,WeatherDisplay:10.37,2013-06-09 12:35:00,
2013-06-09 05:40:00,54.1,41.4,29.85,WNW,296,1.1,1.1,62,0.00,CLR,,0.00,WeatherDisplay:10.37,2013-06-09 12:40:00,
2013-06-09 05:45:00,54.4,41.6,29.85,WNW,296,0.0,0.0,62,0.00,CLR,,0.00,WeatherDisplay:10.37,2013-06-09 12:45:00,
2013-06-09 05:50:00,53.4,41.1,29.85,WNW,296,1.1,1.1,63,0.00,CLR,,0.00,WeatherDisplay:10.37,2013-06-09 12:50:00,
2013-06-09 05:55:00,51.7,41.5,29.86,WNW,296,2.3,2.3,68,0.00,CLR,,0.00,WeatherDisplay:10.37,2013-06-09 12:55:00,
2013-06-09 06:00:00,51.2,41.0,29.87,WNW,295,2.3,2.3,68,0.00,CLR,,0.00,WeatherDisplay:10.37,2013-06-09 13:00:00,
2013-06-09 06:06:00,51.8,41.2,29.87,WNW,295,1.1,0.0,67,0.00,CLR,,0.00,WeatherDisplay:10.37,2013-06-09 13:06:00,
2013-06-09 06:11:00,52.8,41.7,29.87,WNW,296,2.3,2.3,66,0.00,CLR,,0.00,WeatherDisplay:10.37,2013-06-09 13:11:00,
2013-06-09 06:16:00,53.8,42.3,29.86,WNW,295,0.0,0.0,65,0.00,CLR,,0.00,WeatherDisplay:10.37,2013-06-09 13:16:00,
2013-06-09 06:21:00,55.0,43.4,29.86,WNW,296,0.0,0.0,65,0.00,CLR,,0.00,WeatherDisplay:10.37,2013-06-09 13:21:00,
2013-06-09 06:26:00,56.1,44.5,29.86,WNW,296,0.0,0.0,65,0.00,CLR,,0.00,WeatherDisplay:10.37,2013-06-09 13:26:00,
2013-06-09 06:31:00,57.1,45.0,29.85,WNW,296,0.0,0.0,64,0.00,CLR,,0.00,WeatherDisplay:10.37,2013-06-09 13:31:00,
2013-06-09 06:36:00,58.0,45.0,29.85,WNW,295,3.5,3.5,62,0.00,CLR,,0.00,WeatherDisplay:10.37,2013-06-09 13:36:00,
2013-06-09 06:41:00,58.9,45.9,29.85,WNW,295,0.0,0.0,62,0.00,CLR,,0.00,WeatherDisplay:10.37,2013-06-09 13:41:00,
2013-06-09 06:46:00,59.2,45.3,29.85,WNW,295,2.3,2.3,60,0.00,CLR,,0.00,WeatherDisplay:10.37,2013-06-09 13:46:00,
2013-06-09 06:51:00,59.6,45.2,29.84,WNW,296,1.1,1.1,59,0.00,CLR,,0.00,WeatherDisplay:10.37,2013-06-09 13:51:00,
2013-06-09 06:56:00,60.0,46.1,29.84,WNW,295,2.3,2.3,60,0.00,CLR,,0.00,WeatherDisplay:10.37,2013-06-09 13:56:00,
2013-06-09 07:01:00,60.4,46.0,29.86,WNW,296,0.0,0.0,59,0.00,CLR,,0.00,WeatherDisplay:10.37,2013-06-09 14:01:00,
2013-06-09 07:06:00,60.5,46.1,29.85,NW,316,2.3,2.3,59,0.00,CLR,,0.00,WeatherDisplay:10.37,2013-06-09 14:06:00,
2013-06-09 07:11:00,60.9,46.9,29.85,NW,315,0.0,0.0,60,0.00,CLR,,0.00,WeatherDisplay:10.37,2013-06-09 14:11:00,
2013-06-09 07:16:00,61.3,46.4,29.85,NW,316,3.5,3.5,58,0.00,CLR,,0.00,WeatherDisplay:10.37,2013-06-09 14:16:00,
2013-06-09 07:21:00,61.8,46.9,29.85,NW,316,1.1,1.1,58,0.00,CLR,,0.00,WeatherDisplay:10.37,2013-06-09 14:21:00,
2013-06-09 07:26:00,62.3,47.3,29.85,NW,315,1.1,0.0,58,0.00,CLR,,0.00,WeatherDisplay:10.37,2013-06-09 14:26:00,
2013-06-09 07:31:00,62.4,47.0,29.86,NW,321,0.0,0.0,57,0.00,CLR,,0.00,WeatherDisplay:10.37,2013-06-09 14:31:00,
2013-06-09 07:36:00,62.5,47.1,29.85,NW,321,1.1,0.0,57,0.00,CLR,,0.00,WeatherDisplay:10.37,2013-06-09 14:36:00,
2013-06-09 07:41:00,62.5,46.6,29.85,NNW,331,4.6,4.6,56,0.00,CLR,,0.00,WeatherDisplay:10.37,2013-06-09 14:41:00,
2013-06-09 07:46:00,62.6,47.6,29.85,NNW,331,1.1,0.0,58,0.00,CLR,,0.00,WeatherDisplay:10.37,2013-06-09 14:46:00,
2013-06-09 07:51:00,63.1,47.1,29.85,NW,318,3.5,3.5,56,0.00,CLR,,0.00,WeatherDisplay:10.37,2013-06-09 14:51:00,
2013-06-09 07:57:00,63.1,47.6,29.85,NW,312,5.8,5.8,57,0.00,CLR,,0.00,WeatherDisplay:10.37,2013-06-09 14:57:00,
2013-06-09 08:02:00,63.3,47.3,29.87,NW,314,3.5,3.5,56,0.00,CLR,,0.00,WeatherDisplay:10.37,2013-06-09 15:02:00,
2013-06-09 08:07:00,62.9,46.0,29.87,WNW,302,3.5,3.5,54,0.00,CLR,,0.00,WeatherDisplay:10.37,2013-06-09 15:07:00,
2013-06-09 08:12:00,61.5,47.0,29.86,NW,313,4.0,4.0,59,0.00,CLR,,0.00,WeatherDisplay:10.37,2013-06-09 15:12:00,
2013-06-09 08:17:00,62.0,46.6,29.86,WNW,299,5.8,5.8,57,0.00,CLR,,0.00,WeatherDisplay:10.37,2013-06-09 15:17:00,
2013-06-09 08:22:00,61.2,45.4,29.87,West,277,4.6,4.6,56,0.00,CLR,,0.00,WeatherDisplay:10.37,2013-06-09 15:22:00,
2013-06-09 08:27:00,61.0,46.1,29.87,West,281,10.4,10.4,58,0.00,CLR,,0.00,WeatherDisplay:10.37,2013-06-09 15:27:00,
2013-06-09 08:32:00,60.4,44.2,29.87,WSW,257,11.5,11.5,55,0.00,CLR,,0.00,WeatherDisplay:10.37,2013-06-09 15:32:00,
2013-06-09 08:37:00,59.6,45.7,29.87,West,261,4.6,4.6,60,0.00,CLR,,0.00,WeatherDisplay:10.37,2013-06-09 15:37:00,
2013-06-09 08:42:00,60.4,45.5,29.87,West,276,10.4,10.4,58,0.00,CLR,,0.00,WeatherDisplay:10.37,2013-06-09 15:42:00,
2013-06-09 08:47:00,60.3,46.8,29.87,WNW,296,3.5,3.5,61,0.00,CLR,,0.00,WeatherDisplay:10.37,2013-06-09 15:47:00,
2013-06-09 08:52:00,59.9,43.7,29.87,West,273,11.5,11.5,55,0.00,CLR,,0.00,WeatherDisplay:10.37,2013-06-09 15:52:00,
2013-06-09 08:57:00,59.4,43.7,29.87,West,263,5.8,5.8,56,0.00,CLR,,0.00,WeatherDisplay:10.37,2013-06-09 15:57:00,
2013-06-09 09:02:00,60.2,46.3,29.89,West,264,2.3,2.3,60,0.00,CLR,,0.00,WeatherDisplay:10.37,2013-06-09 16:02:00,
2013-06-09 09:07:00,61.0,46.1,29.88,West,273,3.5,3.5,58,0.00,CLR,,0.00,WeatherDisplay:10.37,2013-06-09 16:07:00,
2013-06-09 09:12:00,61.4,46.9,29.88,West,275,9.2,9.2,59,0.00,CLR,,0.00,WeatherDisplay:10.37,2013-06-09 16:12:00,
2013-06-09 09:18:00,62.0,46.6,29.88,West,278,9.2,9.2,57,0.00,CLR,,0.00,WeatherDisplay:10.37,2013-06-09 16:18:00,
2013-06-09 09:23:00,61.3,47.3,29.88,West,272,11.0,11.0,60,0.00,CLR,,0.00,WeatherDisplay:10.37,2013-06-09 16:23:00,
2013-06-09 09:28:00,61.5,47.5,29.88,West,263,16.1,16.1,60,0.00,CLR,,0.00,WeatherDisplay:10.37,2013-06-09 16:28:00,
2013-06-09 09:33:00,61.4,47.4,29.88,West,279,6.0,6.0,60,0.00,CLR,,0.00,WeatherDisplay:10.37,2013-06-09 16:33:00,
2013-06-09 09:38:00,62.0,46.6,29.88,West,268,8.1,8.1,57,0.00,CLR,,0.00,WeatherDisplay:10.37,2013-06-09 16:38:00,
2013-06-09 09:43:00,61.8,47.3,29.88,NW,321,6.9,6.9,59,0.00,CLR,,0.00,WeatherDisplay:10.37,2013-06-09 16:43:00,
2013-06-09 09:48:00,61.4,45.6,29.88,West,275,11.0,11.0,56,0.00,CLR,,0.00,WeatherDisplay:10.37,2013-06-09 16:48:00,
2013-06-09 09:53:00,61.7,47.7,29.88,West,279,10.0,10.0,60,0.00,CLR,,0.00,WeatherDisplay:10.37,2013-06-09 16:53:00,
2013-06-09 09:58:00,61.8,48.6,29.88,West,265,10.4,10.4,62,0.00,CLR,,0.00,WeatherDisplay:10.37,2013-06-09 16:58:00,
2013-06-09 10:03:00,62.1,46.7,29.89,West,279,11.0,11.0,57,0.00,CLR,,0.00,WeatherDisplay:10.37,2013-06-09 17:03:00,
2013-06-09 10:08:00,62.2,45.8,29.89,West,273,11.5,11.5,55,0.00,CLR,,0.00,WeatherDisplay:10.37,2013-06-09 17:08:00,
2013-06-09 10:13:00,61.9,48.7,29.89,WNW,301,3.5,3.5,62,0.00,CLR,,0.00,WeatherDisplay:10.37,2013-06-09 17:13:00,
2013-06-09 10:18:00,62.2,46.8,29.89,West,275,6.9,6.9,57,0.00,CLR,,0.00,WeatherDisplay:10.37,2013-06-09 17:18:00,
2013-06-09 10:23:00,62.8,49.6,29.89,West,275,5.8,5.8,62,0.00,CLR,,0.00,WeatherDisplay:10.37,2013-06-09 17:23:00,
2013-06-09 10:28:00,64.0,48.9,29.88,West,268,1.1,1.1,58,0.00,CLR,,0.00,WeatherDisplay:10.37,2013-06-09 17:28:00,
2013-06-09 10:33:00,65.6,49.5,29.87,North,355,9.2,9.2,56,0.00,CLR,,0.00,WeatherDisplay:10.37,2013-06-09 17:33:00,
2013-06-09 10:38:00,66.7,50.0,29.87,NW,315,4.6,4.6,55,0.00,CLR,,0.00,WeatherDisplay:10.37,2013-06-09 17:38:00,
2013-06-09 10:43:00,67.3,49.1,29.87,NW,311,9.2,9.2,52,0.00,CLR,,0.00,WeatherDisplay:10.37,2013-06-09 17:43:00,
2013-06-09 10:48:00,67.6,48.8,29.86,NNW,344,10.0,10.0,51,0.00,CLR,,0.00,WeatherDisplay:10.37,2013-06-09 17:48:00,
2013-06-09 10:53:00,67.8,50.0,29.87,North,355,9.2,9.2,53,0.00,CLR,,0.00,WeatherDisplay:10.37,2013-06-09 17:53:00,
2013-06-09 10:58:00,67.7,49.4,29.87,NNW,338,6.9,6.9,52,0.00,CLR,,0.00,WeatherDisplay:10.37,2013-06-09 17:58:00,
2013-06-09 11:03:00,68.0,50.2,29.87,NW,323,6.0,6.0,53,0.00,CLR,,0.00,WeatherDisplay:10.37,2013-06-09 18:03:00,
2013-06-09 11:08:00,68.0,51.2,29.87,NW,316,5.0,5.0,55,0.00,CLR,,0.00,WeatherDisplay:10.37,2013-06-09 18:08:00,
2013-06-09 11:13:00,68.3,50.5,29.87,NNW,333,3.5,3.5,53,0.00,CLR,,0.00,WeatherDisplay:10.37,2013-06-09 18:13:00,
2013-06-09 11:18:00,68.5,49.1,29.87,NW,326,6.9,6.9,50,0.00,CLR,,0.00,WeatherDisplay:10.37,2013-06-09 18:18:00,
2013-06-09 11:23:00,68.4,50.1,29.87,NW,325,11.0,11.0,52,0.00,CLR,,0.00,WeatherDisplay:10.37,2013-06-09 18:23:00,
2013-06-09 11:28:00,68.2,50.4,29.87,NNW,341,5.8,5.8,53,0.00,CLR,,0.00,WeatherDisplay:10.37,2013-06-09 18:28:00,
2013-06-09 11:33:00,68.5,51.7,29.86,NW,310,4.6,4.6,55,0.00,CLR,,0.00,WeatherDisplay:10.37,2013-06-09 18:33:00,
2013-06-09 11:38:00,68.6,50.3,29.86,NW,319,3.5,3.5,52,0.00,CLR,,0.00,WeatherDisplay:10.37,2013-06-09 18:38:00,
2013-06-09 11:43:00,68.6,50.3,29.86,NNW,327,4.6,4.6,52,0.00,CLR,,0.00,WeatherDisplay:10.37,2013-06-09 18:43:00,
2013-06-09 11:48:00,68.9,50.5,29.86,NW,325,8.1,8.1,52,0.00,CLR,,0.00,WeatherDisplay:10.37,2013-06-09 18:48:00,
2013-06-09 11:53:00,68.7,50.9,29.86,NNW,342,6.9,6.9,53,0.00,CLR,,0.00,WeatherDisplay:10.37,2013-06-09 18:53:00,
2013-06-09 11:58:00,69.0,51.2,29.86,North,9,5.0,5.0,53,0.00,CLR,,0.00,WeatherDisplay:10.37,2013-06-09 18:58:00,
2013-06-09 12:03:00,69.1,49.7,29.86,NW,321,10.4,10.4,50,0.00,CLR,,0.00,WeatherDisplay:10.37,2013-06-09 19:03:00,
2013-06-09 12:08:00,69.1,49.7,29.86,NW,319,3.5,3.5,50,0.00,CLR,,0.00,WeatherDisplay:10.37,2013-06-09 19:08:00,
2013-06-09 12:13:00,69.1,49.7,29.86,WNW,294,11.5,11.5,50,0.00,CLR,,0.00,WeatherDisplay:10.37,2013-06-09 19:13:00,
2013-06-09 12:18:00,69.1,50.7,29.86,NW,313,5.8,5.8,52,0.00,CLR,,0.00,WeatherDisplay:10.37,2013-06-09 19:18:00,
2013-06-09 12:23:00,68.5,49.1,29.86,WNW,284,6.9,6.9,50,0.00,CLR,,0.00,WeatherDisplay:10.37,2013-06-09 19:23:00,
2013-06-09 12:28:00,68.8,50.5,29.86,NNW,331,11.5,11.5,52,0.00,CLR,,0.00,WeatherDisplay:10.37,2013-06-09 19:28:00,
2013-06-09 12:33:00,69.6,50.7,29.85,NNW,331,9.0,9.0,51,0.00,CLR,,0.00,WeatherDisplay:10.37,2013-06-09 19:33:00,
2013-06-09 12:38:00,69.5,49.5,29.85,North,5,10.4,10.4,49,0.00,CLR,,0.00,WeatherDisplay:10.37,2013-06-09 19:38:00,
2013-06-09 12:43:00,70.0,50.0,29.85,WNW,294,4.6,4.6,49,0.00,CLR,,0.00,WeatherDisplay:10.37,2013-06-09 19:43:00,
2013-06-09 12:48:00,69.6,49.6,29.85,NNE,14,12.7,12.7,49,0.00,CLR,,0.00,WeatherDisplay:10.37,2013-06-09 19:48:00,
2013-06-09 12:53:00,69.8,51.4,29.85,North,360,6.9,6.9,52,0.00,CLR,,0.00,WeatherDisplay:10.37,2013-06-09 19:53:00,
2013-06-09 12:58:00,70.4,52.4,29.84,NW,325,5.8,5.8,53,0.00,CLR,,0.00,WeatherDisplay:10.37,2013-06-09 19:58:00,
2013-06-09 13:03:00,70.8,52.8,29.83,North,5,8.1,8.1,53,0.00,CLR,,0.00,WeatherDisplay:10.37,2013-06-09 20:03:00,
2013-06-09 13:08:00,70.9,50.8,29.83,NNW,346,13.8,13.8,49,0.00,CLR,,0.00,WeatherDisplay:10.37,2013-06-09 20:08:00,
2013-06-09 13:13:00,70.6,51.1,29.83,NNW,345,8.1,8.1,50,0.00,CLR,,0.00,WeatherDisplay:10.37,2013-06-09 20:13:00,
2013-06-09 13:18:00,70.5,49.3,29.83,WNW,287,12.7,12.7,47,0.00,CLR,,0.00,WeatherDisplay:10.37,2013-06-09 20:18:00,
2013-06-09 13:23:00,70.5,49.3,29.83,NW,321,10.4,10.4,47,0.00,CLR,,0.00,WeatherDisplay:10.37,2013-06-09 20:23:00,
2013-06-09 13:28:00,70.6,49.4,29.83,North,5,12.7,12.7,47,0.00,CLR,,0.00,WeatherDisplay:10.37,2013-06-09 20:28:00,
2013-06-09 13:33:00,70.2,48.4,29.83,NE,37,11.5,11.5,46,0.00,CLR,,0.00,WeatherDisplay:10.37,2013-06-09 20:33:00,
2013-06-09 13:39:00,69.9,50.4,29.83,NW,311,11.5,11.5,50,0.00,CLR,,0.00,WeatherDisplay:10.37,2013-06-09 20:39:00,
2013-06-09 13:44:00,70.2,49.0,29.83,NNW,336,11.5,11.5,47,0.00,CLR,,0.00,WeatherDisplay:10.37,2013-06-09 20:44:00,
2013-06-09 13:49:00,70.3,50.8,29.83,NW,304,4.6,4.6,50,0.00,CLR,,0.00,WeatherDisplay:10.37,2013-06-09 20:49:00,
2013-06-09 13:54:00,70.7,50.0,29.82,NW,309,6.9,6.9,48,0.00,CLR,,0.00,WeatherDisplay:10.37,2013-06-09 20:54:00,
2013-06-09 13:59:00,70.8,50.1,29.82,NNW,329,4.6,4.6,48,0.00,CLR,,0.00,WeatherDisplay:10.37,2013-06-09 20:59:00,
2013-06-09 14:04:00,71.2,51.1,29.82,NW,312,13.8,13.8,49,0.00,CLR,,0.00,WeatherDisplay:10.37,2013-06-09 21:04:00,
2013-06-09 14:09:00,71.1,49.8,29.82,WNW,299,11.5,11.5,47,0.00,CLR,,0.00,WeatherDisplay:10.37,2013-06-09 21:09:00,
2013-06-09 14:14:00,70.8,49.6,29.82,NNW,330,12.7,12.7,47,0.00,CLR,,0.00,WeatherDisplay:10.37,2013-06-09 21:14:00,
2013-06-09 14:19:00,70.8,49.6,29.82,NNW,329,11.5,11.5,47,0.00,CLR,,0.00,WeatherDisplay:10.37,2013-06-09 21:19:00,
2013-06-09 14:24:00,70.6,49.4,29.81,WNW,294,11.5,11.5,47,0.00,CLR,,0.00,WeatherDisplay:10.37,2013-06-09 21:24:00,
2013-06-09 14:29:00,70.7,47.7,29.82,North,360,12.7,12.7,44,0.00,CLR,,0.00,WeatherDisplay:10.37,2013-06-09 21:29:00,
2013-06-09 14:34:00,70.4,49.2,29.82,North,360,9.2,9.2,47,0.00,CLR,,0.00,WeatherDisplay:10.37,2013-06-09 21:34:00,
2013-06-09 14:39:00,70.2,49.6,29.81,NW,314,13.8,13.8,48,0.00,CLR,,0.00,WeatherDisplay:10.37,2013-06-09 21:39:00,
2013-06-09 14:44:00,70.3,47.9,29.81,North,350,12.7,12.7,45,0.00,CLR,,0.00,WeatherDisplay:10.37,2013-06-09 21:44:00,
2013-06-09 14:49:00,70.4,48.0,29.81,NW,311,11.5,11.5,45,0.00,CLR,,0.00,WeatherDisplay:10.37,2013-06-09 21:49:00,
2013-06-09 14:54:00,70.6,48.2,29.81,NW,311,16.1,16.1,45,0.00,CLR,,0.00,WeatherDisplay:10.37,2013-06-09 21:54:00,
2013-06-09 14:59:00,70.6,46.4,29.83,NNW,329,16.1,16.1,42,0.00,CLR,,0.00,WeatherDisplay:10.37,2013-06-09 21:59:00,
2013-06-09 15:04:00,70.7,47.1,29.83,NW,315,12.7,12.7,43,0.00,CLR,,0.00,WeatherDisplay:10.37,2013-06-09 22:04:00,
2013-06-09 15:09:00,70.5,45.0,29.83,NNW,334,11.5,11.5,40,0.00,CLR,,0.00,WeatherDisplay:10.37,2013-06-09 22:09:00,
2013-06-09 15:14:00,70.0,44.6,29.83,WNW,287,13.8,13.8,40,0.00,CLR,,0.00,WeatherDisplay:10.37,2013-06-09 22:14:00,
2013-06-09 15:19:00,69.9,45.8,29.83,WNW,288,11.5,11.5,42,0.00,CLR,,0.00,WeatherDisplay:10.37,2013-06-09 22:19:00,
2013-06-09 15:24:00,70.3,45.5,29.83,NW,317,12.7,12.7,41,0.00,CLR,,0.00,WeatherDisplay:10.37,2013-06-09 22:24:00,
2013-06-09 15:29:00,70.5,44.3,29.82,North,360,15.0,15.0,39,0.00,CLR,,0.00,WeatherDisplay:10.37,2013-06-09 22:29:00,
2013-06-09 15:34:00,70.8,45.3,29.82,NNW,343,8.0,8.0,40,0.00,CLR,,0.00,WeatherDisplay:10.37,2013-06-09 22:34:00,
2013-06-09 15:39:00,70.7,45.2,29.82,NNW,346,13.8,13.8,40,0.00,CLR,,0.00,WeatherDisplay:10.37,2013-06-09 22:39:00,
2013-06-09 15:44:00,70.8,46.6,29.82,NNW,332,6.0,6.0,42,0.00,CLR,,0.00,WeatherDisplay:10.37,2013-06-09 22:44:00,
2013-06-09 15:49:00,70.8,45.9,29.82,West,281,9.2,9.2,41,0.00,CLR,,0.00,WeatherDisplay:10.37,2013-06-09 22:49:00,
2013-06-09 15:54:00,71.1,45.5,29.82,NW,309,10.4,10.4,40,0.00,CLR,,0.00,WeatherDisplay:10.37,2013-06-09 22:54:00,
2013-06-09 15:59:00,71.5,45.9,29.82,NW,307,3.5,3.5,40,0.00,CLR,,0.00,WeatherDisplay:10.37,2013-06-09 22:59:00,
2013-06-09 16:04:00,71.7,44.7,29.82,North,360,15.0,15.0,38,0.00,CLR,,0.00,WeatherDisplay:10.37,2013-06-09 23:04:00,
2013-06-09 16:09:00,71.1,45.5,29.82,NW,311,4.6,4.6,40,0.00,CLR,,0.00,WeatherDisplay:10.37,2013-06-09 23:09:00,
2013-06-09 16:14:00,71.2,45.6,29.82,WNW,296,6.9,6.9,40,0.00,CLR,,0.00,WeatherDisplay:10.37,2013-06-09 23:14:00,
2013-06-09 16:19:00,71.2,45.0,29.82,NW,309,9.2,9.2,39,0.00,CLR,,0.00,WeatherDisplay:10.37,2013-06-09 23:19:00,
2013-06-09 16:24:00,71.2,45.0,29.82,NNW,336,6.9,6.9,39,0.00,CLR,,0.00,WeatherDisplay:10.37,2013-06-09 23:24:00,
2013-06-09 16:29:00,71.0,45.5,29.82,NW,321,6.9,6.9,40,0.00,CLR,,0.00,WeatherDisplay:10.37,2013-06-09 23:29:00,
2013-06-09 16:34:00,71.2,45.6,29.82,NNE,13,3.5,3.5,40,0.00,CLR,,0.00,WeatherDisplay:10.37,2013-06-09 23:34:00,
2013-06-09 16:40:00,71.5,47.8,29.82,NNW,340,3.5,3.5,43,0.00,CLR,,0.00,WeatherDisplay:10.37,2013-06-09 23:40:00,
2013-06-09 16:45:00,71.7,45.4,29.82,North,360,12.7,12.7,39,0.00,CLR,,0.00,WeatherDisplay:10.37,2013-06-09 23:45:00,
2013-06-09 16:50:00,71.4,43.8,29.82,NW,311,10.4,10.4,37,0.00,CLR,,0.00,WeatherDisplay:10.37,2013-06-09 23:50:00,
2013-06-09 16:55:00,71.3,45.1,29.81,NW,309,6.9,6.9,39,0.00,CLR,,0.00,WeatherDisplay:10.37,2013-06-09 23:55:00,
2013-06-09 17:00:00,71.4,43.0,29.81,North,355,6.9,6.9,36,0.00,CLR,,0.00,WeatherDisplay:10.37,2013-06-10 00:00:00,
2013-06-09 17:05:00,71.5,43.1,29.81,WNW,295,3.5,3.5,36,0.00,CLR,,0.00,WeatherDisplay:10.37,2013-06-10 00:05:00,
2013-06-09 17:10:00,71.4,42.3,29.82,NNW,346,9.2,9.2,35,0.00,CLR,,0.00,WeatherDisplay:10.37,2013-06-10 00:10:00,
2013-06-09 17:15:00,71.2,42.9,29.82,NW,319,6.9,6.9,36,0.00,CLR,,0.00,WeatherDisplay:10.37,2013-06-10 00:15:00,
2013-06-09 17:20:00,71.2,44.3,29.81,NW,325,4.0,4.0,38,0.00,CLR,,0.00,WeatherDisplay:10.37,2013-06-10 00:20:00,
2013-06-09 17:25:00,71.2,44.3,29.81,NNW,331,4.6,4.6,38,0.00,CLR,,0.00,WeatherDisplay:10.37,2013-06-10 00:25:00,
2013-06-09 17:30:00,71.2,43.6,29.81,NW,322,11.5,11.5,37,0.00,CLR,,0.00,WeatherDisplay:10.37,2013-06-10 00:30:00,
2013-06-09 17:35:00,71.3,44.4,29.81,North,360,3.5,3.5,38,0.00,CLR,,0.00,WeatherDisplay:10.37,2013-06-10 00:35:00,
2013-06-09 17:40:00,71.5,43.1,29.81,NNW,342,4.6,4.6,36,0.00,CLR,,0.00,WeatherDisplay:10.37,2013-06-10 00:40:00,
2013-06-09 17:45:00,71.3,43.0,29.81,NW,321,5.8,5.8,36,0.00,CLR,,0.00,WeatherDisplay:10.37,2013-06-10 00:45:00,
2013-06-09 17:50:00,71.0,42.7,29.81,NNW,329,12.7,12.7,36,0.00,CLR,,0.00,WeatherDisplay:10.37,2013-06-10 00:50:00,
2013-06-09 17:55:00,70.6,42.3,29.81,WNW,292,4.6,4.6,36,0.00,CLR,,0.00,WeatherDisplay:10.37,2013-06-10 00:55:00,
2013-06-09 18:00:00,70.5,42.2,29.77,NW,313,9.2,9.2,36,0.00,CLR,,0.00,WeatherDisplay:10.37,2013-06-10 01:00:00,
2013-06-09 18:05:00,70.5,43.0,29.77,North,11,6.9,6.9,37,0.00,CLR,,0.00,WeatherDisplay:10.37,2013-06-10 01:05:00,
2013-06-09 18:10:00,70.4,41.4,29.77,NNW,331,12.0,12.0,35,0.00,CLR,,0.00,WeatherDisplay:10.37,2013-06-10 01:10:00,
2013-06-09 18:15:00,69.8,41.6,29.77,North,11,10.4,10.4,36,0.00,CLR,,0.00,WeatherDisplay:10.37,2013-06-10 01:15:00,
2013-06-09 18:20:00,69.2,41.8,29.77,North,11,10.4,10.4,37,0.00,CLR,,0.00,WeatherDisplay:10.37,2013-06-10 01:20:00,
2013-06-09 18:25:00,68.9,42.2,29.77,NW,304,9.2,9.2,38,0.00,CLR,,0.00,WeatherDisplay:10.37,2013-06-10 01:25:00,
2013-06-09 18:30:00,68.8,42.1,29.78,NW,323,6.9,6.9,38,0.00,CLR,,0.00,WeatherDisplay:10.37,2013-06-10 01:30:00,
2013-06-09 18:35:00,68.7,42.1,29.78,NNW,327,4.0,4.0,38,0.00,CLR,,0.00,WeatherDisplay:10.37,2013-06-10 01:35:00,
2013-06-09 18:40:00,68.5,41.9,29.78,WNW,293,7.0,7.0,38,0.00,CLR,,0.00,WeatherDisplay:10.37,2013-06-10 01:40:00,
2013-06-09 18:45:00,68.1,41.5,29.78,North,355,5.8,5.8,38,0.00,CLR,,0.00,WeatherDisplay:10.37,2013-06-10 01:45:00,
2013-06-09 18:50:00,67.9,42.0,29.78,NNW,341,6.9,6.9,39,0.00,CLR,,0.00,WeatherDisplay:10.37,2013-06-10 01:50:00,
2013-06-09 18:55:00,67.4,42.2,29.78,NNW,334,9.2,9.2,40,0.00,CLR,,0.00,WeatherDisplay:10.37,2013-06-10 01:55:00,
2013-06-09 19:00:00,66.9,41.8,29.77,WNW,300,10.4,10.4,40,0.00,CLR,,0.00,WeatherDisplay:10.37,2013-06-10 02:00:00,
2013-06-09 19:05:00,66.6,42.2,29.77,NNW,338,6.9,6.9,41,0.00,CLR,,0.00,WeatherDisplay:10.37,2013-06-10 02:05:00,
2013-06-09 19:10:00,66.4,42.0,29.77,NNE,15,10.4,10.4,41,0.00,CLR,,0.00,WeatherDisplay:10.37,2013-06-10 02:10:00,
2013-06-09 19:15:00,66.2,41.2,29.77,North,5,6.9,6.9,40,0.00,CLR,,0.00,WeatherDisplay:10.37,2013-06-10 02:15:00,
2013-06-09 19:20:00,66.0,42.2,29.78,NNW,342,4.6,4.6,42,0.00,CLR,,0.00,WeatherDisplay:10.37,2013-06-10 02:20:00,
2013-06-09 19:25:00,65.5,41.2,29.78,NNW,347,11.5,11.5,41,0.00,CLR,,0.00,WeatherDisplay:10.37,2013-06-10 02:25:00,
2013-06-09 19:30:00,65.0,41.3,29.78,NNW,332,4.6,4.6,42,0.00,CLR,,0.00,WeatherDisplay:10.37,2013-06-10 02:30:00,
2013-06-09 19:35:00,64.6,41.6,29.78,NNW,329,6.9,6.9,43,0.00,CLR,,0.00,WeatherDisplay:10.37,2013-06-10 02:35:00,
2013-06-09 19:41:00,64.3,41.3,29.78,NNW,345,5.8,5.8,43,0.00,CLR,,0.00,WeatherDisplay:10.37,2013-06-10 02:41:00,